Terminal Aerodrome Forecast
Issued by NWS

Home | Current Version | Previous Version | Text Only | Print | Product List | Glossary Off
Versions: 1 2 3 4 5 6 7 8 9 10 11 12 13 14 15 16 17 18 19 20 21 22 23 24 25 26 27 28 29 30

000
FTUS43 KGRB 171125
TAFRHI
TAF
KRHI 171125Z 1712/1812 33009G14KT P6SM BKN022
      TEMPO 1712/1716 5SM -SN BKN015
     FM171600 33010G15KT P6SM BKN015
     FM172200 35007KT P6SM BKN020
     FM180100 36005KT P6SM SCT020
     FM180900 04005KT P6SM BKN035=

USA.gov is the U.S. government's official web portal to all federal, state and local government web resources and services.